createdAt,value
2024-02-19T00:00:28.836Z,0.20
2024-02-19T00:02:57.787Z,0.10
2024-02-19T00:05:26.528Z,0.10
2024-02-19T00:07:55.176Z,0.10
2024-02-19T00:10:23.794Z,0.00
2024-02-19T00:12:52.329Z,0.10
2024-02-19T00:15:21.136Z,0.00
2024-02-19T00:17:51.059Z,0.03
2024-02-19T00:20:19.609Z,0.00
2024-02-19T00:22:48.198Z,0.10
2024-02-19T00:25:17.305Z,0.00
2024-02-19T00:27:45.876Z,0.10
2024-02-19T00:30:14.872Z,0.10
2024-02-19T00:32:43.483Z,0.10
2024-02-19T00:35:13.428Z,0.10
2024-02-19T00:37:42.794Z,0.10
2024-02-19T00:40:11.596Z,0.00
2024-02-19T00:42:40.343Z,0.00
2024-02-19T00:45:09.263Z,0.10
2024-02-19T00:47:38.612Z,0.13
2024-02-19T00:50:07.876Z,0.20
2024-02-19T00:52:39.959Z,0.00
2024-02-19T00:55:08.949Z,0.03
2024-02-19T00:57:38.528Z,0.10
2024-02-19T01:00:07.609Z,0.10
2024-02-19T01:02:36.978Z,0.00
2024-02-19T01:05:06.318Z,0.20
2024-02-19T01:07:34.934Z,0.00
2024-02-19T01:10:04.920Z,0.10
2024-02-19T01:12:33.431Z,0.13
2024-02-19T01:15:02.041Z,0.30
2024-02-19T01:17:30.822Z,0.23
2024-02-19T01:19:59.961Z,0.13
2024-02-19T01:22:29.356Z,0.30
2024-02-19T01:24:58.001Z,0.30
2024-02-19T01:27:27.907Z,0.30
2024-02-19T01:29:56.453Z,0.37
2024-02-19T01:32:25.368Z,0.40
2024-02-19T01:34:54.363Z,0.40
2024-02-19T01:37:23.080Z,0.30
2024-02-19T01:39:52.422Z,0.30
2024-02-19T01:42:20.974Z,0.40
2024-02-19T01:44:50.952Z,0.50
2024-02-19T01:47:19.713Z,0.40
2024-02-19T01:49:48.416Z,0.30
2024-02-19T01:52:17.079Z,0.47
2024-02-19T01:54:45.908Z,0.63
2024-02-19T01:57:14.575Z,0.47
2024-02-19T01:59:43.103Z,0.50
2024-02-19T02:02:13.164Z,0.60
2024-02-19T02:04:42.704Z,0.60
2024-02-19T02:07:11.514Z,0.50
2024-02-19T02:09:40.098Z,0.60
2024-02-19T02:12:08.806Z,0.60
2024-02-19T02:14:37.665Z,0.60
2024-02-19T02:17:06.503Z,0.73
2024-02-19T02:19:37.552Z,0.70
2024-02-19T02:22:06.865Z,0.67
2024-02-19T02:24:35.403Z,0.90
2024-02-19T02:27:05.478Z,0.80
2024-02-19T02:29:34.274Z,0.70
2024-02-19T02:32:02.787Z,0.80
2024-02-19T02:34:31.405Z,0.90
2024-02-19T02:37:00.060Z,1.00
2024-02-19T02:39:28.618Z,1.07
2024-02-19T02:41:57.163Z,1.30
2024-02-19T02:44:27.167Z,1.00
2024-02-19T02:46:55.799Z,1.10
2024-02-19T02:49:24.674Z,1.00
2024-02-19T02:51:53.386Z,1.30
2024-02-19T02:54:21.910Z,1.40
2024-02-19T02:56:50.461Z,1.30
2024-02-19T02:59:18.980Z,1.10
2024-02-19T03:01:49.392Z,1.10
2024-02-19T03:04:18.287Z,1.23
2024-02-19T03:06:46.888Z,1.20
2024-02-19T03:09:15.499Z,1.03
2024-02-19T03:11:44.049Z,1.00
2024-02-19T03:14:15.102Z,1.00
2024-02-19T03:16:43.842Z,1.20
2024-02-19T03:19:14.668Z,0.90
2024-02-19T03:21:43.348Z,1.10
2024-02-19T03:24:11.912Z,0.90
2024-02-19T03:26:41.753Z,1.00
2024-02-19T03:29:15.039Z,0.90
2024-02-19T03:31:44.868Z,0.80
2024-02-19T03:34:14.984Z,0.93
2024-02-19T03:36:46.406Z,0.80
2024-02-19T03:39:15.246Z,0.80
2024-02-19T03:41:43.743Z,0.70
2024-02-19T03:44:12.514Z,0.90
2024-02-19T03:46:41.037Z,0.90
2024-02-19T03:49:09.677Z,0.70
2024-02-19T03:51:39.681Z,0.90
2024-02-19T03:54:08.464Z,0.60
2024-02-19T03:56:36.971Z,0.80
2024-02-19T03:59:06.239Z,0.73
2024-02-19T04:01:34.828Z,0.80
2024-02-19T04:04:03.452Z,0.70
2024-02-19T04:06:32.150Z,0.80
2024-02-19T04:09:02.081Z,0.63
2024-02-19T04:11:30.918Z,0.70
2024-02-19T04:13:59.477Z,0.67
2024-02-19T04:16:28.009Z,0.70
2024-02-19T04:18:56.791Z,0.70
2024-02-19T04:21:25.477Z,0.70
2024-02-19T04:23:54.072Z,0.80
2024-02-19T04:26:23.979Z,0.83
2024-02-19T04:28:54.691Z,0.50
2024-02-19T04:31:23.221Z,0.60
2024-02-19T04:33:51.916Z,0.50
2024-02-19T04:36:20.670Z,0.60
2024-02-19T04:38:49.167Z,0.30
2024-02-19T04:41:17.671Z,0.67
2024-02-19T04:43:47.565Z,0.30
2024-02-19T04:46:16.178Z,0.60
2024-02-19T04:48:44.777Z,0.60
2024-02-19T04:51:14.047Z,0.43
2024-02-19T04:53:42.558Z,0.50
2024-02-19T04:56:11.056Z,0.60
2024-02-19T04:58:39.566Z,0.50
2024-02-19T05:01:09.765Z,0.50
2024-02-19T05:03:38.511Z,0.60
2024-02-19T05:06:08.471Z,0.70
2024-02-19T05:08:37.011Z,0.50
2024-02-19T05:11:06.093Z,0.60
2024-02-19T05:13:36.833Z,0.77
2024-02-19T05:16:07.685Z,0.60
2024-02-19T05:18:37.882Z,0.70
2024-02-19T05:21:07.527Z,0.60
2024-02-19T05:23:36.317Z,0.60
2024-02-19T05:26:08.397Z,0.50
2024-02-19T05:28:38.215Z,0.80
2024-02-19T05:31:07.105Z,0.70
2024-02-19T05:33:37.141Z,0.63
2024-02-19T05:36:06.078Z,0.73
2024-02-19T05:38:39.063Z,0.60
2024-02-19T05:41:08.540Z,0.70
2024-02-19T05:43:37.210Z,0.60
2024-02-19T05:46:05.988Z,0.63
2024-02-19T05:48:35.131Z,1.03
2024-02-19T05:51:05.673Z,0.60
2024-02-19T05:53:35.240Z,0.70
2024-02-19T05:56:04.571Z,0.60
2024-02-19T05:58:33.159Z,0.80
2024-02-19T06:01:01.808Z,0.53
2024-02-19T06:03:30.431Z,0.50
2024-02-19T06:05:59.004Z,0.53
2024-02-19T06:08:28.912Z,0.57
2024-02-19T06:10:57.470Z,0.60
2024-02-19T06:13:26.601Z,0.60
2024-02-19T06:15:55.376Z,0.60
2024-02-19T06:18:24.045Z,0.70
2024-02-19T06:20:52.623Z,1.00
2024-02-19T06:23:21.133Z,0.70
2024-02-19T06:25:51.042Z,0.90
2024-02-19T06:28:19.741Z,0.57
2024-02-19T06:30:48.288Z,0.50
2024-02-19T06:33:17.686Z,0.70
2024-02-19T06:35:46.518Z,0.60
2024-02-19T06:38:15.035Z,0.67
2024-02-19T06:40:43.561Z,0.50
2024-02-19T06:43:13.501Z,0.60
2024-02-19T06:45:42.065Z,0.60
2024-02-19T06:48:10.881Z,0.87
2024-02-19T06:50:39.729Z,1.10
2024-02-19T06:53:08.317Z,1.10
2024-02-19T06:55:36.932Z,1.10
2024-02-19T06:58:05.628Z,1.07
2024-02-19T07:00:35.577Z,1.13
2024-02-19T07:03:04.345Z,1.20
2024-02-19T07:05:33.035Z,1.10
2024-02-19T07:08:01.710Z,1.07
2024-02-19T07:10:30.455Z,0.90
2024-02-19T07:12:59.077Z,0.63
2024-02-19T07:15:27.644Z,0.90
2024-02-19T07:17:57.683Z,0.90
2024-02-19T07:20:26.320Z,0.90
2024-02-19T07:22:54.859Z,0.93
2024-02-19T07:25:23.424Z,0.90
2024-02-19T07:27:52.088Z,0.90
2024-02-19T07:30:20.867Z,0.93
2024-02-19T07:32:49.507Z,0.80
2024-02-19T07:35:19.562Z,1.10
2024-02-19T07:37:48.116Z,1.10
2024-02-19T07:40:17.063Z,1.30
2024-02-19T07:42:45.670Z,1.10
2024-02-19T07:45:14.371Z,1.20
2024-02-19T07:47:43.388Z,1.33
2024-02-19T07:50:12.575Z,1.27
2024-02-19T07:52:44.476Z,1.40
2024-02-19T07:55:13.153Z,1.30
2024-02-19T07:57:41.881Z,1.50
2024-02-19T08:00:11.614Z,1.10
2024-02-19T08:02:40.325Z,0.97
2024-02-19T08:05:09.434Z,0.97
2024-02-19T08:07:38.197Z,0.90
2024-02-19T08:10:08.820Z,0.83
2024-02-19T08:12:41.703Z,0.90
2024-02-19T08:15:12.005Z,0.77
2024-02-19T08:17:40.695Z,1.10
2024-02-19T08:20:10.100Z,0.80
2024-02-19T08:22:38.704Z,1.00
2024-02-19T08:25:09.116Z,0.80
2024-02-19T08:27:37.661Z,0.87
2024-02-19T08:30:06.607Z,0.70
2024-02-19T08:32:35.137Z,0.60
2024-02-19T08:35:03.830Z,0.90
2024-02-19T08:37:32.542Z,0.80
2024-02-19T08:40:01.105Z,0.60
2024-02-19T08:42:31.047Z,0.80
2024-02-19T08:44:59.762Z,0.90
2024-02-19T08:47:28.326Z,0.80
2024-02-19T08:49:56.952Z,0.80
2024-02-19T08:52:25.659Z,0.70
2024-02-19T08:54:54.407Z,0.90
2024-02-19T08:57:22.961Z,0.83
2024-02-19T08:59:55.301Z,1.03
2024-02-19T09:02:23.893Z,0.80
2024-02-19T09:04:52.504Z,0.87
2024-02-19T09:07:21.146Z,0.83
2024-02-19T09:09:49.721Z,0.77
2024-02-19T09:12:18.358Z,0.80
2024-02-19T09:14:46.983Z,0.80
2024-02-19T09:17:16.921Z,0.63
2024-02-19T09:19:46.271Z,0.60
2024-02-19T09:22:15.593Z,0.73
2024-02-19T09:24:47.789Z,0.60
2024-02-19T09:27:17.018Z,0.60
2024-02-19T09:29:46.439Z,0.60
2024-02-19T09:32:15.504Z,0.50
2024-02-19T09:34:45.870Z,0.60
2024-02-19T09:37:14.514Z,0.63
2024-02-19T09:39:43.342Z,0.33
2024-02-19T09:42:12.091Z,0.60
2024-02-19T09:44:40.765Z,0.63
2024-02-19T09:47:09.643Z,0.67
2024-02-19T09:49:38.809Z,0.70
2024-02-19T09:52:13.119Z,0.60
2024-02-19T09:54:42.363Z,0.53
2024-02-19T09:57:11.984Z,0.90
2024-02-19T09:59:43.386Z,0.57
2024-02-19T10:02:13.283Z,0.50
2024-02-19T10:04:42.140Z,0.50
2024-02-19T10:07:12.162Z,0.50
2024-02-19T10:09:41.017Z,0.60
2024-02-19T10:12:09.839Z,0.70
2024-02-19T10:14:38.390Z,0.60
2024-02-19T10:17:07.499Z,0.70
2024-02-19T10:19:37.442Z,0.60
2024-02-19T10:22:06.293Z,0.50
2024-02-19T10:24:36.259Z,0.50
2024-02-19T10:27:05.132Z,0.60
2024-02-19T10:29:33.662Z,0.60
2024-02-19T10:32:02.146Z,0.47
2024-02-19T10:34:30.657Z,0.60
2024-02-19T10:37:00.297Z,0.50
2024-02-19T10:39:28.988Z,0.50
2024-02-19T10:41:58.908Z,0.57
2024-02-19T10:44:27.837Z,0.50
2024-02-19T10:46:56.626Z,0.60
2024-02-19T10:49:25.678Z,0.70
2024-02-19T10:51:54.715Z,0.50
2024-02-19T10:54:23.221Z,0.60
2024-02-19T10:56:52.739Z,0.50
2024-02-19T10:59:22.762Z,0.60
2024-02-19T11:01:52.057Z,0.40
2024-02-19T11:04:22.047Z,0.60
2024-02-19T11:06:52.293Z,0.50
2024-02-19T11:09:28.603Z,0.60
2024-02-19T11:11:59.728Z,0.47
2024-02-19T11:14:32.207Z,0.43
2024-02-19T11:17:02.022Z,0.30
2024-02-19T11:19:31.172Z,0.47
2024-02-19T11:22:08.279Z,0.50
2024-02-19T11:24:36.878Z,0.33
2024-02-19T11:27:06.118Z,0.30
2024-02-19T11:29:44.015Z,0.40
2024-02-19T11:32:20.446Z,0.30
2024-02-19T11:34:51.423Z,0.40
2024-02-19T11:37:20.629Z,0.43
2024-02-19T11:39:49.451Z,0.43
2024-02-19T11:42:19.197Z,0.40
2024-02-19T11:44:49.994Z,0.30
2024-02-19T11:47:18.607Z,0.50
2024-02-19T11:49:48.684Z,0.40
2024-02-19T11:52:17.491Z,0.40
2024-02-19T11:54:46.193Z,0.30
2024-02-19T11:57:15.261Z,0.40
2024-02-19T11:59:46.701Z,0.40
2024-02-19T12:02:17.079Z,0.27
2024-02-19T12:04:52.070Z,0.30
2024-02-19T12:07:20.760Z,0.40
2024-02-19T12:09:49.394Z,0.40
2024-02-19T12:12:19.011Z,0.20
2024-02-19T12:14:47.687Z,0.40
2024-02-19T12:17:17.656Z,0.23
2024-02-19T12:19:46.240Z,0.30
2024-02-19T12:22:15.545Z,0.30
2024-02-19T12:24:44.113Z,0.40
2024-02-19T12:27:12.637Z,0.40
2024-02-19T12:29:41.155Z,0.33
2024-02-19T12:32:11.679Z,0.50
2024-02-19T12:34:42.214Z,0.50
2024-02-19T12:37:10.854Z,0.47
2024-02-19T12:39:41.833Z,0.50
2024-02-19T12:42:11.593Z,0.47
2024-02-19T12:44:40.222Z,0.50
2024-02-19T12:47:08.748Z,0.40
2024-02-19T12:49:39.586Z,0.50
2024-02-19T12:52:11.423Z,0.50
2024-02-19T12:54:43.037Z,0.33
2024-02-19T12:57:11.819Z,0.40
2024-02-19T12:59:40.429Z,0.43
2024-02-19T13:02:10.898Z,0.40
2024-02-19T13:04:39.535Z,0.40
2024-02-19T13:07:08.242Z,0.53
2024-02-19T13:09:38.248Z,0.30
2024-02-19T13:12:07.496Z,0.60
2024-02-19T13:14:37.591Z,0.40
2024-02-19T13:17:13.530Z,0.47
2024-02-19T13:19:46.804Z,0.50
2024-02-19T13:22:15.872Z,0.40
2024-02-19T13:24:45.840Z,0.40
2024-02-19T13:27:14.426Z,0.50
2024-02-19T13:29:42.940Z,0.43
2024-02-19T13:32:12.003Z,0.60
2024-02-19T13:34:40.813Z,0.50
2024-02-19T13:37:09.573Z,0.40
2024-02-19T13:39:38.122Z,0.50
2024-02-19T13:42:08.438Z,0.40
2024-02-19T13:44:38.848Z,0.53
2024-02-19T13:47:08.090Z,0.60
2024-02-19T13:49:36.905Z,0.60
2024-02-19T13:52:05.810Z,0.60
2024-02-19T13:54:34.332Z,0.50
2024-02-19T13:57:04.597Z,0.50
2024-02-19T13:59:34.565Z,0.40
2024-02-19T14:02:03.208Z,0.43
2024-02-19T14:04:31.926Z,0.70
2024-02-19T14:07:01.338Z,0.50
2024-02-19T14:09:29.974Z,0.70
2024-02-19T14:11:58.476Z,0.50
2024-02-19T14:14:26.961Z,0.70
2024-02-19T14:16:57.290Z,0.77
2024-02-19T14:19:25.991Z,0.70
2024-02-19T14:21:54.669Z,0.60
2024-02-19T14:24:23.204Z,0.80
2024-02-19T14:26:52.439Z,0.80
2024-02-19T14:29:21.062Z,0.70
2024-02-19T14:31:51.701Z,0.40
2024-02-19T14:34:23.894Z,0.60
2024-02-19T14:36:53.803Z,0.50
2024-02-19T14:39:23.571Z,0.60
2024-02-19T14:41:53.598Z,0.70
2024-02-19T14:44:22.218Z,0.50
2024-02-19T14:46:54.995Z,0.50
2024-02-19T14:49:32.129Z,0.57
2024-02-19T14:52:01.548Z,0.50
2024-02-19T14:54:30.258Z,0.50
2024-02-19T14:57:00.270Z,0.50
2024-02-19T14:59:29.512Z,0.43
2024-02-19T15:01:58.321Z,0.60
2024-02-19T15:04:27.123Z,0.70
2024-02-19T15:07:01.210Z,0.70
2024-02-19T15:09:29.939Z,0.90
2024-02-19T15:11:58.447Z,0.73
2024-02-19T15:14:26.964Z,0.50
2024-02-19T15:16:55.615Z,0.70
2024-02-19T15:19:24.218Z,0.70
2024-02-19T15:21:52.782Z,0.80
2024-02-19T15:24:23.031Z,0.57
2024-02-19T15:26:51.561Z,0.80
2024-02-19T15:29:20.845Z,0.80
2024-02-19T15:31:49.565Z,0.67
2024-02-19T15:34:18.209Z,0.60
2024-02-19T15:36:46.860Z,0.60
2024-02-19T15:39:16.593Z,0.60
2024-02-19T15:41:46.962Z,0.73
2024-02-19T15:44:15.470Z,0.90
2024-02-19T15:46:43.953Z,0.70
2024-02-19T15:49:13.418Z,0.77
2024-02-19T15:51:42.037Z,0.70
2024-02-19T15:54:11.060Z,0.80
2024-02-19T15:56:40.572Z,0.70
2024-02-19T15:59:10.488Z,0.87
2024-02-19T16:01:39.128Z,0.70
2024-02-19T16:04:07.800Z,0.70
2024-02-19T16:06:38.165Z,0.63
2024-02-19T16:09:11.489Z,0.80
2024-02-19T16:11:40.600Z,0.80
2024-02-19T16:14:10.591Z,0.93
2024-02-19T16:16:39.939Z,0.90
2024-02-19T16:19:08.660Z,0.60
2024-02-19T16:21:37.206Z,0.73
2024-02-19T16:24:04.876Z,0.60
2024-02-19T16:26:33.403Z,1.10
2024-02-19T16:29:01.935Z,1.00
2024-02-19T16:31:33.196Z,1.10
2024-02-19T16:34:02.052Z,1.03
2024-02-19T16:36:30.733Z,1.00
2024-02-19T16:38:59.407Z,1.10
2024-02-19T16:41:27.904Z,1.17
2024-02-19T16:43:56.460Z,0.70
2024-02-19T16:46:25.541Z,1.00
2024-02-19T16:48:55.523Z,1.00
2024-02-19T16:51:24.074Z,0.80
2024-02-19T16:53:55.528Z,0.87
2024-02-19T16:56:28.040Z,0.90
2024-02-19T16:58:56.789Z,0.90
2024-02-19T17:01:27.151Z,0.73
2024-02-19T17:03:57.774Z,0.87
2024-02-19T17:06:26.486Z,0.67
2024-02-19T17:08:55.082Z,1.07
2024-02-19T17:11:24.999Z,0.90
2024-02-19T17:13:54.506Z,0.80
2024-02-19T17:16:23.082Z,1.00
2024-02-19T17:18:51.728Z,0.93
2024-02-19T17:21:21.708Z,1.13
2024-02-19T17:23:50.218Z,0.80
2024-02-19T17:26:18.794Z,0.70
2024-02-19T17:28:47.328Z,0.83
2024-02-19T17:31:15.939Z,1.00
2024-02-19T17:33:45.015Z,0.87
2024-02-19T17:36:13.658Z,0.90
2024-02-19T17:38:43.602Z,0.80
2024-02-19T17:41:12.175Z,0.67
2024-02-19T17:43:40.881Z,0.90
2024-02-19T17:46:09.884Z,0.90
2024-02-19T17:48:38.769Z,0.90
2024-02-19T17:51:07.843Z,0.90
2024-02-19T17:53:37.500Z,0.80
2024-02-19T17:56:08.311Z,0.80
2024-02-19T17:58:36.999Z,0.53
2024-02-19T18:01:06.939Z,0.97
2024-02-19T18:03:35.583Z,0.60
2024-02-19T18:06:04.261Z,1.00
2024-02-19T18:08:34.297Z,0.60
2024-02-19T18:11:02.859Z,0.73
2024-02-19T18:13:34.454Z,0.90
2024-02-19T18:16:03.142Z,0.80
2024-02-19T18:18:31.736Z,0.87
2024-02-19T18:21:00.344Z,0.70
2024-02-19T18:23:29.830Z,0.77
2024-02-19T18:25:58.522Z,0.90
2024-02-19T18:28:28.885Z,0.80
2024-02-19T18:30:59.951Z,0.60
2024-02-19T18:33:29.790Z,0.80
2024-02-19T18:35:58.336Z,0.80
2024-02-19T18:38:26.977Z,0.70
2024-02-19T18:40:57.700Z,0.60
2024-02-19T18:43:26.945Z,0.50
2024-02-19T18:45:56.469Z,0.50
2024-02-19T18:48:27.794Z,0.60
2024-02-19T18:50:56.341Z,0.60
2024-02-19T18:53:25.011Z,0.60
2024-02-19T18:56:01.345Z,0.67
2024-02-19T18:58:31.109Z,0.50
2024-02-19T19:01:01.470Z,1.10
2024-02-19T19:03:31.560Z,0.60
2024-02-19T19:06:04.737Z,0.60
2024-02-19T19:08:33.961Z,0.50
2024-02-19T19:11:02.973Z,0.40
2024-02-19T19:13:33.251Z,0.60
2024-02-19T19:16:02.073Z,0.50
2024-02-19T19:18:32.408Z,0.50
2024-02-19T19:21:01.135Z,0.50
2024-02-19T19:23:29.681Z,0.40
2024-02-19T19:25:58.630Z,0.43
2024-02-19T19:28:27.237Z,0.20
2024-02-19T19:30:56.356Z,0.40
2024-02-19T19:33:24.996Z,0.50
2024-02-19T19:35:54.937Z,0.50
2024-02-19T19:38:23.516Z,0.30
2024-02-19T19:40:52.245Z,0.57
2024-02-19T19:43:20.894Z,0.30
2024-02-19T19:45:49.447Z,0.50
2024-02-19T19:48:19.766Z,0.43
2024-02-19T19:50:48.314Z,0.40
2024-02-19T19:53:20.094Z,0.50
2024-02-19T19:55:48.702Z,0.60
2024-02-19T19:58:21.514Z,0.40
2024-02-19T20:00:53.436Z,0.50
2024-02-19T20:03:22.100Z,0.60
2024-02-19T20:05:50.776Z,0.50
2024-02-19T20:08:20.900Z,0.50
2024-02-19T20:10:49.688Z,0.50
2024-02-19T20:13:18.327Z,0.40
2024-02-19T20:15:46.903Z,0.47
2024-02-19T20:18:15.637Z,0.60
2024-02-19T20:20:44.675Z,0.20
2024-02-19T20:23:13.250Z,0.40
2024-02-19T20:25:43.197Z,0.60
2024-02-19T20:28:11.762Z,0.40
2024-02-19T20:30:40.325Z,0.47
2024-02-19T20:33:08.959Z,0.50
2024-02-19T20:35:37.700Z,0.50
2024-02-19T20:38:06.625Z,0.30
2024-02-19T20:40:35.961Z,0.50
2024-02-19T20:43:06.084Z,0.50
2024-02-19T20:45:34.878Z,0.50
2024-02-19T20:48:03.443Z,0.50
2024-02-19T20:50:31.984Z,0.40
2024-02-19T20:53:01.082Z,0.40
2024-02-19T20:55:30.141Z,0.50
2024-02-19T20:57:58.732Z,0.40
2024-02-19T21:00:28.822Z,0.30
2024-02-19T21:02:57.503Z,0.37
2024-02-19T21:05:26.039Z,0.30
2024-02-19T21:07:55.158Z,0.33
2024-02-19T21:10:23.931Z,0.40
2024-02-19T21:12:52.564Z,0.30
2024-02-19T21:15:22.472Z,0.10
2024-02-19T21:17:52.507Z,0.40
2024-02-19T21:20:21.351Z,0.27
2024-02-19T21:22:51.793Z,0.70
2024-02-19T21:25:20.772Z,1.00
2024-02-19T21:27:49.363Z,0.60
2024-02-19T21:30:18.076Z,0.50
2024-02-19T21:32:47.625Z,0.40
2024-02-19T21:35:18.574Z,0.50
2024-02-19T21:37:47.183Z,0.50
2024-02-19T21:40:16.376Z,0.47
2024-02-19T21:42:44.899Z,0.73
2024-02-19T21:45:14.208Z,0.47
2024-02-19T21:47:42.773Z,0.80
2024-02-19T21:50:11.641Z,0.60
2024-02-19T21:52:44.348Z,0.27
2024-02-19T21:55:13.032Z,0.30
2024-02-19T21:57:41.549Z,0.70
2024-02-19T22:00:12.017Z,0.63
2024-02-19T22:02:40.601Z,0.90
2024-02-19T22:05:09.528Z,1.00
2024-02-19T22:07:40.298Z,1.20
2024-02-19T22:10:11.789Z,0.90
2024-02-19T22:12:41.828Z,0.70
2024-02-19T22:15:11.141Z,0.70
2024-02-19T22:17:39.695Z,0.60
2024-02-19T22:20:10.870Z,0.60
2024-02-19T22:22:39.572Z,0.60
2024-02-19T22:25:10.268Z,0.53
2024-02-19T22:27:38.824Z,0.50
2024-02-19T22:30:08.821Z,0.40
2024-02-19T22:32:37.378Z,0.50
2024-02-19T22:35:06.232Z,0.47
2024-02-19T22:37:35.034Z,0.50
2024-02-19T22:40:04.028Z,0.50
2024-02-19T22:42:34.010Z,0.50
2024-02-19T22:45:03.887Z,0.37
2024-02-19T22:47:33.686Z,0.40
2024-02-19T22:50:05.400Z,0.60
2024-02-19T22:52:34.159Z,0.50
2024-02-19T22:55:03.495Z,0.60
2024-02-19T22:57:32.098Z,0.50
2024-02-19T23:00:08.696Z,0.50
2024-02-19T23:02:37.437Z,0.50
2024-02-19T23:05:06.307Z,0.60
2024-02-19T23:07:34.899Z,0.80
2024-02-19T23:10:03.533Z,0.80
2024-02-19T23:12:32.293Z,1.10
2024-02-19T23:15:02.201Z,0.90
2024-02-19T23:17:30.728Z,0.70
2024-02-19T23:19:59.456Z,0.70
2024-02-19T23:22:28.255Z,0.93
2024-02-19T23:24:56.941Z,0.80
2024-02-19T23:27:25.453Z,0.60
2024-02-19T23:29:54.033Z,0.67
2024-02-19T23:32:24.069Z,0.70
2024-02-19T23:34:52.766Z,0.60
2024-02-19T23:37:21.957Z,0.70
2024-02-19T23:39:50.598Z,0.60
2024-02-19T23:42:19.132Z,0.60
2024-02-19T23:44:48.263Z,0.70
2024-02-19T23:47:16.792Z,0.67
2024-02-19T23:49:47.520Z,0.63
2024-02-19T23:52:16.243Z,0.60
2024-02-19T23:54:44.792Z,0.70
2024-02-19T23:57:13.400Z,0.70
2024-02-19T23:59:41.901Z,1.00
